CSUN Campus Station - National Weather Service Data Page - PST Time




                Date      RH     Dew  Seasonal     Current   Max Air   Min Air    Wind    Wind    Wind    Gust     Bar    Rain
                Time       %   Point      Rain    Air Temp     Since     Since   Speed    Gust     Dir     Dir   Press   Total
                               Deg F    Inches       Deg F  Midnight  Midnight     MPH     MPH                      mb  Inches
------------------------------------------------------------------------------------------------------------------------------
    08/19/2014 00:00      65    56.1      6.49        68.5      97.5      63.7       1       4      87      81    1010    0.00
    08/19/2014 00:10      65    56.1      6.49        68.3      68.5      68.1       1       3      93     108    1010    0.00
    08/19/2014 00:20      66    55.9      6.49        67.8      68.5      67.2       1       3     143      96    1010    0.00
    08/19/2014 00:30      67    55.9      6.49        67.3      68.5      67.2       1       3     128     141    1010    0.00
    08/19/2014 00:40      68    56.3      6.49        67.3      68.5      67.2       0       2     127     105    1010    0.00
    08/19/2014 00:50      68    56.4      6.49        67.1      68.5      66.8       1       3     126     128    1010    0.00
    08/19/2014 01:00      68    55.9      6.49        66.7      68.5      66.4       2       4     135     133    1010    0.00
    08/19/2014 01:10      69    55.7      6.49        66.5      68.5      66.1       2       4     144     145    1010    0.00
    08/19/2014 01:20      70    55.7      6.49        66.0      68.5      65.8       2       4     139     161    1010    0.00
    08/19/2014 01:30      73    56.5      6.49        65.9      68.5      65.7       2       5     119     100    1010    0.00
    08/19/2014 01:40      76    57.4      6.49        65.7      68.5      65.5       2       5     137     129    1010    0.00
    08/19/2014 01:50      77    58.1      6.49        65.7      68.5      65.5       2       6     125     114    1010    0.00
    08/19/2014 02:00      78    58.7      6.49        66.0      68.5      65.5       3       6      86      65    1010    0.00
    08/19/2014 02:10      77    58.9      6.49        66.1      68.5      65.5       2       5      85     103    1010    0.00
    08/19/2014 02:20      78    59.0      6.49        66.2      68.5      65.5       1       4      74      48    1010    0.00
    08/19/2014 02:30      78    59.2      6.49        66.4      68.5      65.5       1       3     139     140    1010    0.00
    08/19/2014 02:40      78    59.3      6.49        66.4      68.5      65.5       2       4     140     144    1010    0.00
    08/19/2014 02:50      78    59.3      6.49        66.5      68.5      65.5       1       3      99      80    1010    0.00
    08/19/2014 03:00      78    59.5      6.49        66.6      68.5      65.5       2       4     155     144    1010    0.00
    08/19/2014 03:10      78    59.5      6.49        66.4      68.5      65.5       3       5     146     171    1010    0.00
    08/19/2014 03:20      78    59.4      6.49        66.3      68.5      65.5       3       6     148     153    1010    0.00
    08/19/2014 03:30      79    59.4      6.49        66.1      68.5      65.5       3       6     164     120    1010    0.00
    08/19/2014 03:40      79    59.5      6.49        66.0      68.5      65.5       3       5     160     189    1010    0.00
    08/19/2014 03:50      78    59.5      6.49        66.3      68.5      65.5       2       6     138     127    1010    0.00
    08/19/2014 04:00      76    59.2      6.49        66.7      68.5      65.5       2       5     139     137    1011    0.00
    08/19/2014 04:10      75    58.8      6.49        67.0      68.5      65.5       2       4     110     162    1011    0.00
    08/19/2014 04:20      76    58.9      6.49        66.9      68.5      65.5       2       5     149     178    1011    0.00
    08/19/2014 04:30      75    59.0      6.49        66.8      68.5      65.5       2       6     144     158    1011    0.00
    08/19/2014 04:40      74    58.5      6.49        66.9      68.5      65.5       2       5     130     159    1011    0.00
    08/19/2014 04:50      74    58.2      6.49        66.9      68.5      65.5       2       4     124     137    1011    0.00
    08/19/2014 05:00      74    58.2      6.49        66.9      68.5      65.5       2       5     117     102    1010    0.00
    08/19/2014 05:10      73    58.1      6.49        66.9      68.5      65.5       2       5      97      93    1010    0.00
    08/19/2014 05:20      72    57.7      6.49        67.0      68.5      65.5       2       6     105      84    1010    0.00
    08/19/2014 05:30      72    57.4      6.49        66.8      68.5      65.5       2       5     136     133    1010    0.00
    08/19/2014 05:40      71    57.4      6.49        66.8      68.5      65.5       2       8     135     177    1011    0.00
    08/19/2014 05:50      72    57.2      6.49        66.5      68.5      65.5       4       7     141     160    1011    0.00
    08/19/2014 06:00      71    57.1      6.49        66.6      68.5      65.5       2       6     126     145    1011    0.00
    08/19/2014 06:10      70    57.2      6.49        67.0      68.5      65.5       1       4      77     104    1011    0.00
    08/19/2014 06:20      70    57.2      6.49        67.2      68.5      65.5       2       7     110     100    1011    0.00
    08/19/2014 06:30      69    56.9      6.49        67.3      68.5      65.5       3       8     100      70    1011    0.00
    08/19/2014 06:40      69    56.8      6.49        67.4      68.5      65.5       3       6     106      94    1011    0.00
    08/19/2014 06:50      68    56.8      6.49        67.6      68.5      65.5       2       6      99      67    1011    0.00
    08/19/2014 07:00      67    56.7      6.49        67.8      68.5      65.5       4       8      77      73    1011    0.00
    08/19/2014 07:10      68    56.6      6.49        67.8      68.5      65.5       3       7      92      97    1011    0.00
    08/19/2014 07:20      68    56.8      6.49        67.8      68.5      65.5       4       8      84     106    1011    0.00
    08/19/2014 07:30      68    56.9      6.49        67.8      68.5      65.5       3       6      93     103    1011    0.00
    08/19/2014 07:40      67    56.9      6.49        68.2      68.5      65.5       3       6      95      90    1011    0.00
    08/19/2014 07:50      67    57.0      6.49        68.3      68.7      65.5       2       6      92      36    1011    0.00
    08/19/2014 08:00      66    57.0      6.49        68.7      69.0      65.5       3       7      80      58    1011    0.00
    08/19/2014 08:10      65    57.0      6.49        68.9      69.4      65.5       3       8      84      71    1011    0.00
    08/19/2014 08:20      64    57.0      6.49        69.4      69.6      65.5       2       6     103      68    1011    0.00
    08/19/2014 08:30      65    57.0      6.49        69.5      69.8      65.5       3       6     120      76    1011    0.00
    08/19/2014 08:40      64    57.3      6.49        69.7      70.1      65.5       3       7     102     151    1011    0.00
    08/19/2014 08:50      65    57.4      6.49        69.6      70.1      65.5       4       7     148     129    1011    0.00
    08/19/2014 09:00      65    57.5      6.49        69.7      70.2      65.5       3       7     130     163    1011    0.00
    08/19/2014 09:10      65    57.8      6.49        70.3      70.7      65.5       3       6     155     120    1012    0.00
    08/19/2014 09:20      64    57.8      6.49        70.3      70.7      65.5       4      10     144     157    1012    0.00
    08/19/2014 09:30      63    57.6      6.49        70.5      70.9      65.5       3       7     131     164    1012    0.00
    08/19/2014 09:40      63    57.5      6.49        70.5      71.0      65.5       6      11     155     158    1012    0.00
    08/19/2014 09:50      64    57.6      6.49        70.4      71.0      65.5       5       9     151     165    1012    0.00
    08/19/2014 10:00      63    57.7      6.49        71.2      71.6      65.5       5      12     158     159    1012    0.00
    08/19/2014 10:10      63    57.5      6.49        70.7      71.6      65.5       5      11     159     159    1012    0.00
    08/19/2014 10:20      62    57.6      6.49        71.0      71.7      65.5       5      11     171     204    1012    0.00
    08/19/2014 10:30      57    57.7      6.49        72.4      73.3      65.5       5       9     153     132    1012    0.00
    08/19/2014 10:40      58    57.3      6.49        72.8      73.3      65.5       4      10     165     155    1012    0.00
    08/19/2014 10:50      54    56.7      6.49        73.4      73.9      65.5       3      10      84     164    1012    0.00
    08/19/2014 11:00      55    56.8      6.49        74.2      74.8      65.5       4       8     122     172    1012    0.00
    08/19/2014 11:10      52    56.7      6.49        74.6      75.3      65.5       3       8     140     146    1012    0.00
    08/19/2014 11:20      51    56.1      6.49        75.3      75.7      65.5       2       5      58     105    1011    0.00
    08/19/2014 11:30      50    56.1      6.49        75.6      76.0      65.5       5      11     158     131    1011    0.00
    08/19/2014 11:40      46    55.7      6.49        76.7      77.5      65.5       2       7     118      70    1011    0.00
    08/19/2014 11:50      47    55.8      6.49        77.6      78.1      65.5       4       8     135     151    1011    0.00
    08/19/2014 12:00      46    56.0      6.49        77.2      78.5      65.5       2       6      89     131    1011    0.00
    08/19/2014 12:10      47    55.9      6.49        78.8      79.4      65.5       4       8     155     164    1011    0.00
    08/19/2014 12:20      44    55.5      6.49        78.9      79.7      65.5       4       9     125      80    1011    0.00
    08/19/2014 12:30      42    55.4      6.49        79.5      80.1      65.5       5      10     131     127    1010    0.00
    08/19/2014 12:40      42    55.3      6.49        80.2      81.1      65.5       3       8     146     148    1010    0.00
    08/19/2014 12:50      40    55.4      6.49        81.2      81.7      65.5       5      11     137     174    1010    0.00
    08/19/2014 13:00      42    55.3      6.49        80.4      81.7      65.5       4      12     174     150    1010    0.00
    08/19/2014 13:10      40    55.4      6.49        80.7      81.7      65.5       5      10     124     143    1010    0.00
    08/19/2014 13:20      40    54.8      6.49        81.0      82.0      65.5       4       8     123     133    1010    0.00
    08/19/2014 13:30      38    54.8      6.49        81.8      82.4      65.5       3       9     128     151    1010    0.00
    08/19/2014 13:40      40    54.7      6.49        81.6      82.4      65.5       4      10     117      85    1010    0.00
    08/19/2014 13:50      40    55.4      6.49        81.4      82.4      65.5       4      10     121     131    1010    0.00
    08/19/2014 14:00      42    55.4      6.49        81.5      82.4      65.5       5       9     131     192    1009    0.00
    08/19/2014 14:10      42    55.9      6.49        81.4      82.4      65.5       7      14     159     152    1009    0.00
    08/19/2014 14:20      41    56.0      6.49        82.1      82.5      65.5       6      12     138     137    1009    0.00
    08/19/2014 14:30      42    56.3      6.49        81.6      82.5      65.5       7      10     147     150    1009    0.00
    08/19/2014 14:40      43    56.1      6.49        81.0      82.5      65.5       5      11     134     191    1009    0.00
    08/19/2014 14:50      43    56.0      6.49        81.2      82.5      65.5       4       9     122     128    1009    0.00
    08/19/2014 15:00      43    55.8      6.49        80.6      82.5      65.5       7      12     148     161    1009    0.00
    08/19/2014 15:10      42    55.5      6.49        80.2      82.5      65.5       6      12     140     143    1009    0.00
    08/19/2014 15:20      45    55.7      6.49        79.8      82.5      65.5       7      11     153     157    1009    0.00
    08/19/2014 15:30      43    55.9      6.49        79.4      82.5      65.5       6      12     137     149    1009    0.00
    08/19/2014 15:40      44    55.5      6.49        79.0      82.5      65.5       5       9     130     146    1009    0.00
    08/19/2014 15:50      44    55.5      6.49        79.2      82.5      65.5       5      10     138     160    1009    0.00
    08/19/2014 16:00      45    56.2      6.49        79.4      82.5      65.5       5      10     139     107    1009    0.00
    08/19/2014 16:10      48    56.3      6.49        78.6      82.5      65.5       5       9     136     141    1009    0.00
    08/19/2014 16:20      47    56.3      6.49        77.9      82.5      65.5       4       9     120     148    1009    0.00
    08/19/2014 16:30      50    56.4      6.49        77.5      82.5      65.5       4       9     124     136    1009    0.00
    08/19/2014 16:40      50    56.7      6.49        77.0      82.5      65.5       4      10     122     117    1009    0.00
    08/19/2014 16:50      51    57.0      6.49        76.4      82.5      65.5       6      11     132     153    1009    0.00
    08/19/2014 17:00      53    57.0      6.49        75.9      82.5      65.5       4       9     121     111    1009    0.00
    08/19/2014 17:10      54    56.9      6.49        75.2      82.5      65.5       5       9     119      90    1009    0.00
    08/19/2014 17:20      54    56.9      6.49        75.1      82.5      65.5       4      10     116     117    1009    0.00
    08/19/2014 17:30      56    56.9      6.49        74.3      82.5      65.5       4      10     122      94    1009    0.00
    08/19/2014 17:40      57    57.1      6.49        73.3      82.5      65.5       3       7     113     141    1009    0.00
    08/19/2014 17:50      60    57.5      6.49        73.0      82.5      65.5       4       9     153     164    1009    0.00
    08/19/2014 18:00      61    57.8      6.49        72.1      82.5      65.5       4       8     152     151    1009    0.00
    08/19/2014 18:10      62    57.5      6.49        71.6      82.5      65.5       4       8     141     137    1009    0.00
    08/19/2014 18:20      63    57.6      6.49        71.0      82.5      65.5       4       7     142     143    1009    0.00
    08/19/2014 18:30      64    57.6      6.49        70.7      82.5      65.5       3       7     147     149    1009    0.00
    08/19/2014 18:40      65    57.6      6.49        70.2      82.5      65.5       3       5     143     184    1010    0.00
    08/19/2014 18:50      67    57.7      6.49        69.6      82.5      65.5       3       6     153     172    1010    0.00
    08/19/2014 19:00      68    57.8      6.49        69.0      82.5      65.5       4       6     153     141    1010    0.00
    08/19/2014 19:10      71    58.1      6.49        68.5      82.5      65.5       4       7     142     176    1010    0.00
    08/19/2014 19:20      71    58.3      6.49        68.0      82.5      65.5       3       6     135     132    1010    0.00
    08/19/2014 19:30      70    58.1      6.49        68.0      82.5      65.5       1       4      96     100    1010    0.00
    08/19/2014 19:40      71    58.1      6.49        68.1      82.5      65.5       2       5     100      99    1010    0.00
    08/19/2014 19:50      72    58.2      6.49        67.7      82.5      65.5       2       4     132     135    1010    0.00
    08/19/2014 20:00      72    58.0      6.49        67.5      82.5      65.5       2       4     113     137    1010    0.00
    08/19/2014 20:10      72    57.9      6.49        67.3      82.5      65.5       2       5     125      90    1011    0.00
    08/19/2014 20:20      74    57.9      6.49        66.7      82.5      65.5       2       6     132      66    1011    0.00
    08/19/2014 20:30      74    58.0      6.49        66.5      82.5      65.5       2       5     119     122    1011    0.00
    08/19/2014 20:40      74    58.0      6.49        66.4      82.5      65.5       3       6     129     135    1011    0.00
    08/19/2014 20:50      75    57.9      6.49        66.2      82.5      65.5       3       5     139     139    1011    0.00
    08/19/2014 21:00      76    58.0      6.49        66.0      82.5      65.5       3       6     148     143    1011    0.00
    08/19/2014 21:10      76    58.1      6.49        65.9      82.5      65.5       2       4     154     176    1011    0.00
    08/19/2014 21:20      76    58.1      6.49        65.8      82.5      65.5       2       4     168     163    1011    0.00
    08/19/2014 21:30      76    58.1      6.49        65.7      82.5      65.5       2       4     170     190    1011    0.00
    08/19/2014 21:40      76    58.2      6.49        65.9      82.5      65.5       1       2     177     178    1011    0.00
    08/19/2014 21:50      76    58.3      6.49        66.0      82.5      65.5       0       2     166     139    1011    0.00
    08/19/2014 22:00      76    58.4      6.49        66.3      82.5      65.5       1       2     129     138    1011    0.00
    08/19/2014 22:10      75    58.4      6.49        66.5      82.5      65.5       0       2     139      85    1011    0.00
    08/19/2014 22:20      75    58.5      6.49        66.7      82.5      65.5       1       3     137     169    1011    0.00
    08/19/2014 22:30      74    58.4      6.49        66.8      82.5      65.5       2       4     134     151    1011    0.00
    08/19/2014 22:40      73    58.4      6.49        67.1      82.5      65.5       1       2     102     118    1011    0.00
    08/19/2014 22:50      74    58.4      6.49        67.2      82.5      65.5       1       3     147     141    1011    0.00
    08/19/2014 23:00      74    58.5      6.49        67.0      82.5      65.5       2       3     165     165    1011    0.00
    08/19/2014 23:10      74    58.5      6.49        67.0      82.5      65.5       0       1     204     236    1011    0.00
    08/19/2014 23:20      74    58.6      6.49        67.1      82.5      65.5       1       3     178     168    1011    0.00
    08/19/2014 23:30      74    58.6      6.49        67.1      82.5      65.5       2       3     185     148    1011    0.00
    08/19/2014 23:40      74    58.5      6.49        67.2      82.5      65.5       2       4     160     166    1011    0.00
    08/19/2014 23:50      73    58.4      6.49        67.3      82.5      65.5       2       5     148     151    1011    0.00
    08/20/2014 00:00      74    58.4      6.49        67.3      82.5      65.5       2       4     163     139    1011    0.00
    08/20/2014 00:10      73    58.4      6.49        67.2      67.5      67.0       3       5     146     126    1011    0.00
    08/20/2014 00:20      73    58.2      6.49        67.1      67.5      66.9       3       6     147     155    1011    0.00
    08/20/2014 00:30      73    58.2      6.49        67.0      67.5      66.9       2       4     148     153    1011    0.00
    08/20/2014 00:40      73    58.2      6.49        67.1      67.5      66.9       3       5     153     165    1011    0.00
    08/20/2014 00:50      72    58.1      6.49        67.2      67.5      66.9       3       6     140     132    1011    0.00
    08/20/2014 01:00      72    58.0      6.49        67.4      67.6      66.9       2       5     124      98    1011    0.00
    08/20/2014 01:10      71    57.8      6.49        67.3      67.6      66.9       3       5     144     150    1011    0.00
    08/20/2014 01:20      69    57.4      6.49        67.5      67.8      66.9       1       5     105      81    1011    0.00
    08/20/2014 01:30      71    57.5      6.49        67.5      67.8      66.9       2       4     153     143    1011    0.00
    08/20/2014 01:40      70    57.5      6.49        67.6      67.8      66.9       2       3     123      91    1011    0.00
    08/20/2014 01:50      70    57.4      6.49        67.6      67.8      66.9       3       7     140     161    1011    0.00
    08/20/2014 02:00      69    57.2      6.49        67.5      67.8      66.9       2       5     107     122    1011    0.00
    08/20/2014 02:10      69    57.1      6.49        67.4      67.8      66.9       2       7     122      81    1011    0.00
    08/20/2014 02:20      70    57.1      6.49        67.2      67.8      66.9       3       5     139     140    1011    0.00
    08/20/2014 02:30      70    57.0      6.49        67.1      67.8      66.9       2       5     130     127    1011    0.00
    08/20/2014 02:40      69    56.9      6.49        67.1      67.8      66.8       2       5     134     163    1011    0.00
    08/20/2014 02:50      68    56.6      6.49        67.1      67.8      66.8       2       6     113     117    1011    0.00
    08/20/2014 03:00      67    56.2      6.49        67.2      67.8      66.8       1       5     108      97    1011    0.00
    08/20/2014 03:10      68    56.3      6.49        67.2      67.8      66.8       2       5     113      70    1011    0.00
    08/20/2014 03:20      69    56.5      6.49        67.3      67.8      66.8       2       5     112     135    1011    0.00
    08/20/2014 03:30      72    57.1      6.49        66.9      67.8      66.4       3       6     146     119    1011    0.00
    08/20/2014 03:40      73    57.4      6.49        66.5      67.8      66.3       3       5     145     166    1011    0.00
    08/20/2014 03:50      73    57.4      6.49        66.5      67.8      66.2       3       5     150     142    1011    0.00
    08/20/2014 04:00      73    57.4      6.49        66.2      67.8      66.0       2       5     133     152    1011    0.00
    08/20/2014 04:10      73    57.4      6.49        66.1      67.8      65.9       2       5     145     178    1011    0.00
    08/20/2014 04:20      73    57.2      6.49        66.2      67.8      65.9       2       4     129     160    1011    0.00
    08/20/2014 04:30      74    57.1      6.49        65.9      67.8      65.6       3       5     157     148    1011    0.00
    08/20/2014 04:40      74    57.1      6.49        65.7      67.8      65.4       2       4     157     140    1011    0.00
    08/20/2014 04:50      73    57.0      6.49        65.6      67.8      65.3       2       4     165     167    1011    0.00
    08/20/2014 05:00      73    56.9      6.49        65.7      67.8      65.3       2       3     143     143    1012    0.00
    08/20/2014 05:10      72    56.8      6.49        65.9      67.8      65.3       2       3     133     140    1012    0.00
    08/20/2014 05:20      72    56.8      6.49        65.9      67.8      65.3       2       4     148     133    1012    0.00
    08/20/2014 05:30      72    56.6      6.49        65.8      67.8      65.3       1       3     142     161    1012    0.00
    08/20/2014 05:40      72    56.6      6.49        65.9      67.8      65.3       2       5     147     150    1012    0.00
    08/20/2014 05:50      72    56.6      6.49        65.9      67.8      65.3       2       4     156     143    1012    0.00
    08/20/2014 06:00      72    56.6      6.49        66.0      67.8      65.3       2       4     159     171    1012    0.00
    08/20/2014 06:10      71    56.6      6.49        66.0      67.8      65.3       2       3     157     156    1012    0.00
    08/20/2014 06:20      71    56.5      6.49        66.1      67.8      65.3       2       3     146     156    1012    0.00
    08/20/2014 06:30      71    56.5      6.49        66.1      67.8      65.3       2       4     151     167    1012    0.00
    08/20/2014 06:40      71    56.4      6.49        66.2      67.8      65.3       1       3     186     157    1012    0.00
    08/20/2014 06:50      69    56.5      6.49        66.6      67.8      65.3       0       1     207     209    1012    0.00
    08/20/2014 07:00      66    56.4      6.49        67.7      68.1      65.3       1       3     302     342    1012    0.00
    08/20/2014 07:10      66    56.4      6.49        68.0      68.5      65.3       1       2     274     275    1012    0.00
    08/20/2014 07:20      63    56.4      6.49        69.1      69.6      65.3       0       2     265     298    1012    0.00
    08/20/2014 07:30      63    56.1      6.49        69.0      69.6      65.3       1       3     284     244    1012    0.00
    08/20/2014 07:40      63    56.0      6.49        69.4      69.7      65.3       1       4      17      38    1012    0.00
    08/20/2014 07:50      61    56.1      6.49        69.6      70.5      65.3       2       5      56      91    1012    0.00
    08/20/2014 08:00      61    56.4      6.49        70.6      71.3      65.3       2       7     159     147    1013    0.00
    08/20/2014 08:10      60    56.2      6.49        70.9      71.4      65.3       3       6      86       4    1013    0.00
    08/20/2014 08:20      60    56.1      6.49        70.7      71.4      65.3       3       6     118      84    1013    0.00
    08/20/2014 08:30      57    56.3      6.49        71.5      72.6      65.3       2       6     157     167    1013    0.00
    08/20/2014 08:40      59    56.1      6.49        72.2      72.7      65.3       3       8     147     184    1013    0.00
    08/20/2014 08:50      58    55.9      6.49        71.5      72.7      65.3       3       8     107      93    1013    0.00
    08/20/2014 09:00      58    56.0      6.49        71.3      72.7      65.3       3       6     140     165    1013    0.00
    08/20/2014 09:10      56    56.2      6.49        72.3      72.8      65.3       5      10     158     159    1013    0.00
    08/20/2014 09:20      52    55.6      6.49        73.4      74.1      65.3       2       8     115     104    1013    0.00
    08/20/2014 09:30      54    55.2      6.49        73.3      74.1      65.3       3       7     133     153    1013    0.00
    08/20/2014 09:40      52    55.4      6.49        73.4      74.1      65.3       3       6     147     166    1013    0.00
    08/20/2014 09:50      51    55.4      6.49        74.1      74.9      65.3       3       7     139     175    1013    0.00
    08/20/2014 10:00      50    55.5      6.49        74.5      75.1      65.3       3       7     150     180    1013    0.00
    08/20/2014 10:10      47    55.0      6.49        75.3      76.4      65.3       5      10     171     154    1013    0.00
    08/20/2014 10:20      45    53.8      6.49        76.2      77.0      65.3       2       8     112      56    1013    0.00
    08/20/2014 10:30      43    53.9      6.49        77.3      78.0      65.3       3       9     141     154    1013    0.00
    08/20/2014 10:40      42    53.1      6.49        78.0      78.7      65.3       3       8     138     160    1013    0.00
    08/20/2014 10:50      40    52.0      6.49        78.0      78.7      65.3       3       8     122     107    1013    0.00
    08/20/2014 11:00      35    50.5      6.49        79.4      80.0      65.3       3       9     106     164    1013    0.00
    08/20/2014 11:10      39    51.6      6.49        79.9      80.8      65.3       5      11     156     150    1012    0.00
    08/20/2014 11:20      34    49.8      6.49        79.8      80.8      65.3       5      12     125     142    1012    0.00
    08/20/2014 11:30      34    49.4      6.49        80.3      80.8      65.3       4       9     102      72    1012    0.00
    08/20/2014 11:40      34    50.2      6.49        80.5      81.1      65.3       6      12     155     147    1012    0.00
    08/20/2014 11:50      31    50.1      6.49        81.0      82.9      65.3       3       7     140     144    1012    0.00
    08/20/2014 12:00      31    49.1      6.49        83.0      83.7      65.3       3       8     114      83    1012    0.00
    08/20/2014 12:10      32    49.5      6.49        82.6      83.7      65.3       4       7      96      99    1012    0.00
    08/20/2014 12:20      27    47.1      6.49        83.0      83.7      65.3       4      11     135     133    1012    0.00
    08/20/2014 12:30      29    47.4      6.49        83.4      83.7      65.3       4      10     115      80    1012    0.00
    08/20/2014 12:40      32    49.1      6.49        83.0      83.7      65.3       4       9     118     134    1012    0.00
    08/20/2014 12:50      27    48.5      6.49        83.7      84.5      65.3       5      13     156     158    1012    0.00
    08/20/2014 13:00      27    47.1      6.49        83.9      84.5      65.3       3       8     130     129    1011    0.00
    08/20/2014 13:10      22    44.9      6.49        84.4      85.0      65.3       4       8     110     149    1011    0.00
    08/20/2014 13:20      28    46.4      6.49        84.3      85.0      65.3       5      10     125      79    1011    0.00
    08/20/2014 13:30      24    46.1      6.49        84.6      85.0      65.3       5      10     136     126    1011    0.00
    08/20/2014 13:40      28    44.2      6.49        84.6      85.1      65.3       6      14     152     169    1011    0.00
    08/20/2014 13:50      22    44.8      6.49        84.2      85.1      65.3       6      10     150     151    1011    0.00
    08/20/2014 14:00      18    41.7      6.49        84.4      85.1      65.3       4      13     125     147    1011    0.00
    08/20/2014 14:10      26    42.6      6.49        84.4      85.1      65.3       6      12     135     149    1011    0.00
    08/20/2014 14:20      28    46.9      6.49        84.6      85.4      65.3       6      13     153     165    1011    0.00
    08/20/2014 14:30      28    48.1      6.49        84.0      85.4      65.3       6      11     139     141    1011    0.00
    08/20/2014 14:40      28    46.8      6.49        83.9      85.4      65.3       7      12     154     160    1011    0.00
    08/20/2014 14:50      29    46.3      6.49        83.8      85.4      65.3       7      14     147     160    1011    0.00
    08/20/2014 15:00      24    43.9      6.49        84.4      85.4      65.3       6      14     156     148    1011    0.00
    08/20/2014 15:10      16    40.8      6.49        84.0      85.4      65.3       6      11     133     146    1011    0.00
    08/20/2014 15:20      21    40.4      6.49        83.8      85.4      65.3       4      12     140     145    1011    0.00
    08/20/2014 15:30      25    42.5      6.49        84.0      85.4      65.3       4       9     139     138    1011    0.00
    08/20/2014 15:40      26    41.3      6.49        84.3      85.4      65.3       4      11     141     147    1010    0.00
    08/20/2014 15:50      28    45.7      6.49        83.0      85.4      65.3       4       8     136     165    1010    0.00
    08/20/2014 16:00      24    41.7      6.49        83.7      85.4      65.3       5      10     151     152    1010    0.00
    08/20/2014 16:10      21    42.7      6.49        84.3      85.4      65.3       3       9     141     157    1010    0.00
    08/20/2014 16:20      21    40.1      6.49        83.6      85.4      65.3       5      10     134     156    1010    0.00
    08/20/2014 16:30      24    41.4      6.49        83.7      85.4      65.3       4       8     136     143    1010    0.00
    08/20/2014 16:40      21    42.3      6.49        83.6      85.4      65.3       4       8     140     161    1010    0.00
    08/20/2014 16:50      22    40.4      6.49        83.2      85.4      65.3       4       9     141     166    1010    0.00
    08/20/2014 17:00      23    40.6      6.49        83.0      85.4      65.3       5      10     135     143    1010    0.00
    08/20/2014 17:10      29    43.0      6.49        82.6      85.4      65.3       5      12     142     170    1010    0.00
    08/20/2014 17:20      30    46.5      6.49        82.0      85.4      65.3       3       8     116     157    1010    0.00
    08/20/2014 17:30      31    47.5      6.49        81.2      85.4      65.3       4       8     126     130    1010    0.00
    08/20/2014 17:40      30    46.0      6.49        80.4      85.4      65.3       3       8     115     121    1010    0.00
    08/20/2014 17:50      31    46.6      6.49        80.1      85.4      65.3       3       8     130     165    1010    0.00
    08/20/2014 18:00      35    47.8      6.49        79.0      85.4      65.3       4       9     125     165    1010    0.00
    08/20/2014 18:10      36    48.1      6.49        77.6      85.4      65.3       4      10     131     141    1010    0.00
    08/20/2014 18:20      38    48.8      6.49        77.1      85.4      65.3       2       5     131     161    1010    0.00
    08/20/2014 18:30      40    49.7      6.49        76.4      85.4      65.3       3       7     150     108    1010    0.00
    08/20/2014 18:40      41    50.2      6.49        75.8      85.4      65.3       0       3     139     119    1011    0.00
    08/20/2014 18:50      41    50.5      6.49        75.7      85.4      65.3       1       3     128     135    1011    0.00
    08/20/2014 19:00      43    50.6      6.49        75.1      85.4      65.3       2       3     152     160    1011    0.00
    08/20/2014 19:10      43    50.8      6.49        74.8      85.4      65.3       3       5     131     118    1011    0.00
    08/20/2014 19:20      46    51.4      6.49        74.4      85.4      65.3       3       7     144     136    1011    0.00
    08/20/2014 19:30      48    52.3      6.49        73.9      85.4      65.3       3       5     146     144    1011    0.00
    08/20/2014 19:40      50    53.2      6.49        73.4      85.4      65.3       2       5     137     134    1011    0.00
    08/20/2014 19:50      52    53.8      6.49        73.0      85.4      65.3       2       4     116     145    1011    0.00
    08/20/2014 20:00      54    54.2      6.49        72.3      85.4      65.3       2       6     112      97    1011    0.00
    08/20/2014 20:10      56    54.6      6.49        71.6      85.4      65.3       1       5     122     103    1011    0.00
    08/20/2014 20:20      57    55.0      6.49        71.1      85.4      65.3       1       3     110     143    1012    0.00
    08/20/2014 20:30      58    55.2      6.49        70.9      85.4      65.3       1       4      73      79    1012    0.00
    08/20/2014 20:40      58    55.0      6.49        70.7      85.4      65.3       3       5      84      73    1012    0.00
    08/20/2014 20:50      58    55.0      6.49        70.5      85.4      65.3       1       4      85      86    1012    0.00
    08/20/2014 21:00      58    55.1      6.49        70.5      85.4      65.3       1       3      87      82    1012    0.00
    08/20/2014 21:10      59    55.1      6.49        70.3      85.4      65.3       1       4      89      72    1012    0.00
    08/20/2014 21:20      59    55.1      6.49        70.2      85.4      65.3       1       2      93      93    1012    0.00
    08/20/2014 21:30      60    55.3      6.49        69.9      85.4      65.3       1       3     115     101    1012    0.00
    08/20/2014 21:40      61    55.3      6.49        69.3      85.4      65.3       2       3     138     165    1012    0.00
    08/20/2014 21:50      61    55.2      6.49        69.2      85.4      65.3       1       3     101      86    1012    0.00
    08/20/2014 22:00      61    55.2      6.49        69.0      85.4      65.3       0       3     114     124    1012    0.00
    08/20/2014 22:10      62    55.3      6.49        68.9      85.4      65.3       0       2      89      74    1012    0.00
    08/20/2014 22:20      62    55.4      6.49        69.1      85.4      65.3       1       3      69      52    1012    0.00
    08/20/2014 22:30      62    55.8      6.49        69.2      85.4      65.3       2       3      74      79    1012    0.00
    08/20/2014 22:40      63    55.9      6.49        69.2      85.4      65.3       2       4      67      75    1012    0.00
    08/20/2014 22:50      63    56.0      6.49        69.0      85.4      65.3       0       2      72      55    1012    0.00
    08/20/2014 23:00      64    55.9      6.49        68.7      85.4      65.3       0       1      45      32    1012    0.00
    08/20/2014 23:10      65    55.9      6.49        68.4      85.4      65.3       0       1     111     102    1012    0.00
    08/20/2014 23:20      66    56.0      6.49        68.0      85.4      65.3       0       1      78      93    1012    0.00
    08/20/2014 23:30      68    56.3      6.49        67.6      85.4      65.3       0       1     169     169    1012    0.00
    08/20/2014 23:40      68    56.3      6.49        67.3      85.4      65.3       1       2     155     143    1012    0.00
    08/20/2014 23:50      67    56.3      6.49        67.4      85.4      65.3       0       2     137     106    1012    0.00
    08/21/2014 00:00      67    56.2      6.49        67.6      85.4      65.3       0       1     138     144    1012    0.00
    08/21/2014 00:10      68    56.2      6.49        67.3      67.6      67.1       0       0       0     182    1012    0.00
    08/21/2014 00:20      68    56.2      6.49        67.1      67.6      66.8       0       0       0     166    1012    0.00
    08/21/2014 00:30      69    56.1      6.49        66.8      67.6      66.5       0       0       0     179    1012    0.00
    08/21/2014 00:40      70    56.1      6.49        66.4      67.6      66.0       0       1     154     153    1012    0.00
    08/21/2014 00:50      71    56.5      6.49        66.2      67.6      66.0       2       3     167     156    1012    0.00
    08/21/2014 01:00      70    56.4      6.49        66.3      67.6      66.0       1       3     153     164    1012    0.00
    08/21/2014 01:10      69    56.3      6.49        66.7      67.6      66.0       2       3     143     149    1012    0.00
    08/21/2014 01:20      69    56.3      6.49        66.8      67.6      66.0       0       3     136     157    1012    0.00
    08/21/2014 01:30      69    56.3      6.49        66.8      67.6      66.0       0       1      89      78    1012    0.00
    08/21/2014 01:40      70    56.3      6.49        66.7      67.6      66.0       0       1      93      97    1012    0.00
    08/21/2014 01:50      71    56.4      6.49        66.3      67.6      66.0       0       2      35      41    1012    0.00
    08/21/2014 02:00      71    56.4      6.49        66.0      67.6      65.8       1       2      74      77    1012    0.00
    08/21/2014 02:10      73    56.4      6.49        65.7      67.6      65.4       0       1      41      46    1012    0.00
    08/21/2014 02:20      73    56.7      6.49        65.7      67.6      65.4       1       2      76      93    1012    0.00
    08/21/2014 02:30      72    56.8      6.49        66.0      67.6      65.4       1       2      70      93    1012    0.00
    08/21/2014 02:40      72    56.9      6.49        66.3      67.6      65.4       1       3      71      81    1012    0.00
    08/21/2014 02:50      73    57.0      6.49        66.2      67.6      65.4       2       4      65      86    1012    0.00
    08/21/2014 03:00      74    57.2      6.49        66.0      67.6      65.4       1       4      60      49    1012    0.00
    08/21/2014 03:10      74    57.3      6.49        65.9      67.6      65.4       2       4      59      52    1012    0.00
    08/21/2014 03:20      74    57.3      6.49        65.8      67.6      65.4       1       3      51      74    1012    0.00
    08/21/2014 03:30      75    57.4      6.49        65.5      67.6      65.3       1       2      24      21    1012    0.00
    08/21/2014 03:40      76    57.4      6.49        65.3      67.6      65.1       1       3      38      38    1012    0.00
    08/21/2014 03:50      76    57.5      6.49        65.3      67.6      65.1       1       3      55      35    1012    0.00
    08/21/2014 04:00      76    57.4      6.49        65.2      67.6      65.0       1       3      58      59    1012    0.00
    08/21/2014 04:10      77    57.5      6.49        65.0      67.6      64.8       2       3      39      46    1012    0.00
    08/21/2014 04:20      77    57.5      6.49        65.0      67.6      64.8       1       2      56      41    1012    0.00
    08/21/2014 04:30      77    57.5      6.49        65.0      67.6      64.8       1       3      58      58    1012    0.00
    08/21/2014 04:40      77    57.4      6.49        64.8      67.6      64.5       0       2      75      84    1012    0.00
    08/21/2014 04:50      78    57.5      6.49        64.6      67.6      64.5       1       2      44      28    1012    0.00
    08/21/2014 05:00      78    57.5      6.49        64.5      67.6      64.4       1       2      72      73    1012    0.00
    08/21/2014 05:10      78    57.5      6.49        64.5      67.6      64.3       1       2      66      53    1012    0.00
    08/21/2014 05:20      78    57.4      6.49        64.4      67.6      64.2       0       1      85      87    1012    0.00
    08/21/2014 05:30      80    57.5      6.49        64.1      67.6      63.8       0       0     119     110    1012    0.00
    08/21/2014 05:40      80    57.6      6.49        63.9      67.6      63.7       0       0      49      49    1012    0.00
    08/21/2014 05:50      80    57.7      6.49        63.9      67.6      63.7       0       1     113     113    1013    0.00
    08/21/2014 06:00      80    57.8      6.49        64.0      67.6      63.7       1       2      70      63    1013    0.00
    08/21/2014 06:10      78    58.0      6.49        64.7      67.6      63.7       0       2      80      68    1013    0.00
    08/21/2014 06:20      77    58.0      6.49        65.2      67.6      63.7       1       3     161     142    1013    0.00
    08/21/2014 06:30      74    58.1      6.49        66.2      67.6      63.7       2       4     158     167    1013    0.00
    08/21/2014 06:40      72    57.6      6.49        66.5      67.6      63.7       2       4     144     148    1013    0.00
    08/21/2014 06:50      72    57.8      6.49        67.2      67.6      63.7       2       4     166     162    1013    0.00
    08/21/2014 07:00      70    57.7      6.49        67.3      67.8      63.7       2       3     156     136    1013    0.00
    08/21/2014 07:10      69    57.6      6.49        68.1      68.3      63.7       2       4     172     162    1013    0.00
    08/21/2014 07:20      68    57.6      6.49        68.8      69.1      63.7       1       3     167     190    1013    0.00
    08/21/2014 07:30      63    57.6      6.49        70.1      70.7      63.7       1       3     140     133    1013    0.00
    08/21/2014 07:40      65    57.4      6.49        70.2      70.7      63.7       2       4     181     179    1013    0.00
    08/21/2014 07:50      60    57.6      6.49        71.3      71.6      63.7       1       3     174     166    1013    0.00
    08/21/2014 08:00      59    57.1      6.49        71.7      72.4      63.7       1       5     145     174    1013    0.00
    08/21/2014 08:10      58    56.9      6.49        72.8      73.2      63.7       1       3      85      57    1013    0.00
    08/21/2014 08:20      57    56.9      6.49        72.5      73.2      63.7       1       4     237     198    1013    0.00
    08/21/2014 08:30      55    56.9      6.49        73.2      73.7      63.7       1       5     200     220    1013    0.00
    08/21/2014 08:40      54    56.9      6.49        74.2      75.0      63.7       1       4     208     183    1013    0.00
    08/21/2014 08:50      52    56.8      6.49        74.7      75.5      63.7       2       5     160     148    1013    0.00
    08/21/2014 09:00      51    56.6      6.49        75.3      75.7      63.7       2       5     171     157    1013    0.00
    08/21/2014 09:10      50    56.4      6.49        76.1      77.1      63.7       1       5     187     188    1013    0.00
    08/21/2014 09:20      50    56.4      6.49        76.4      77.1      63.7       1       4     126     154    1013    0.00
    08/21/2014 09:30      48    56.4      6.49        76.6      77.2      63.7       3       5     153     203    1013    0.00
    08/21/2014 09:40      48    56.0      6.49        77.7      78.6      63.7       2       6     115     161    1013    0.00
    08/21/2014 09:50      45    55.6      6.49        78.2      78.8      63.7       2       6     154     164    1013    0.00
    08/21/2014 10:00      43    55.3      6.49        79.3      79.8      63.7       2       5      99      67    1013    0.00
    08/21/2014 10:10      41    54.7      6.49        79.9      80.4      63.7       1       5     107     189    1013    0.00
    08/21/2014 10:20      41    55.0      6.49        80.4      80.9      63.7       2       4      91     129    1013    0.00
    08/21/2014 10:30      42    55.1      6.49        81.0      81.4      63.7       2       4      99      50    1013    0.00
    08/21/2014 10:40      41    55.4      6.49        81.6      82.2      63.7       2       7     171     151    1013    0.00
    08/21/2014 10:50      40    54.6      6.49        80.9      82.2      63.7       1       3     245     164    1013    0.00
    08/21/2014 11:00      42    56.4      6.49        81.5      82.5      63.7       3       6     181     149    1013    0.00
    08/21/2014 11:10      39    56.2      6.49        83.0      83.6      63.7       3       7      92      76    1013    0.00
    08/21/2014 11:20      39    56.5      6.49        83.0      83.7      63.7       4       9     159     155    1013    0.00
    08/21/2014 11:30      39    55.3      6.49        83.2      83.8      63.7       2       6     146     117    1012    0.00
    08/21/2014 11:40      36    55.8      6.49        84.0      84.7      63.7       3       7     158     138    1012    0.00
    08/21/2014 11:50      40    55.5      6.49        84.7      85.3      63.7       4       8     160     172    1012    0.00
    08/21/2014 12:00      36    55.1      6.49        85.0      85.4      63.7       4       8     146     165    1012    0.00
    08/21/2014 12:10      35    54.9      6.49        84.4      85.4      63.7       5      10     161     146    1012    0.00
    08/21/2014 12:20      33    54.0      6.49        84.6      85.4      63.7       3       8     155     141    1012    0.00
    08/21/2014 12:30      32    53.8      6.49        85.9      86.4      63.7       3       7     155     142    1012    0.00
    08/21/2014 12:40      34    54.1      6.49        86.4      87.3      63.7       3      11     168     167    1012    0.00
    08/21/2014 12:50      33    54.1      6.49        86.3      87.3      63.7       4      11     133     145    1012    0.00
    08/21/2014 13:00      34    53.9      6.49        86.7      87.3      63.7       3       7     122     138    1012    0.00
    08/21/2014 13:10      30    54.1      6.49        88.2      88.9      63.7       4       8     130     176    1012    0.00
    08/21/2014 13:20      30    53.3      6.49        88.4      88.9      63.7       3       9     128      96    1012    0.00
    08/21/2014 13:30      30    53.3      6.49        88.0      88.9      63.7       4      10     129     147    1011    0.00
    08/21/2014 13:40      30    53.2      6.49        87.7      88.9      63.7       3       5     107     103    1011    0.00
    08/21/2014 13:50      30    53.0      6.49        87.9      88.9      63.7       3       8     125     147    1011    0.00
    08/21/2014 14:00      30    53.3      6.49        88.2      88.9      63.7       4      11     124     150    1011    0.00
    08/21/2014 14:10      29    52.8      6.49        88.2      88.9      63.7       4       9     120     172    1011    0.00
    08/21/2014 14:20      29    52.7      6.49        88.7      89.3      63.7       4      10      95      92    1011    0.00
    08/21/2014 14:30      29    52.8      6.49        88.4      89.3      63.7       4       8     134     150    1011    0.00
    08/21/2014 14:40      29    52.6      6.49        88.9      89.4      63.7       3      10     109      92    1011    0.00
    08/21/2014 14:50      29    52.5      6.49        88.9      89.8      63.7       4      10     115     133    1011    0.00
    08/21/2014 15:00      28    52.5      6.49        88.8      89.8      63.7       4       8     115     117    1011    0.00
    08/21/2014 15:10      29    51.7      6.49        88.5      89.8      63.7       6      11      98      89    1011    0.00
    08/21/2014 15:20      30    51.9      6.49        88.5      89.8      63.7       5      11      96      60    1011    0.00
    08/21/2014 15:30      30    52.5      6.49        88.1      89.8      63.7       5       9     100     139    1010    0.00
    08/21/2014 15:40      30    52.1      6.49        87.8      89.8      63.7       5      12     132     114    1010    0.00
    08/21/2014 15:50      29    52.7      6.49        87.9      89.8      63.7       5      10     128     159    1010    0.00
    08/21/2014 16:00      30    52.2      6.49        87.3      89.8      63.7       5      10     102      87    1010    0.00
    08/21/2014 16:10      31    52.4      6.49        87.2      89.8      63.7       5      10     114      57    1010    0.00
    08/21/2014 16:20      31    52.3      6.49        86.8      89.8      63.7       4      11      99      78    1010    0.00
    08/21/2014 16:30      32    53.1      6.49        86.0      89.8      63.7       4      10     109      70    1010    0.00
    08/21/2014 16:40      35    53.9      6.49        85.5      89.8      63.7       4       9     134     124    1011    0.00
    08/21/2014 16:50      35    54.3      6.49        85.0      89.8      63.7       3       8     115     138    1011    0.00
    08/21/2014 17:00      35    54.2      6.49        84.8      89.8      63.7       4      10     100      90    1011    0.00
    08/21/2014 17:10      35    54.1      6.49        84.6      89.8      63.7       3       8     104     104    1011    0.00
    08/21/2014 17:20      38    54.1      6.49        83.9      89.8      63.7       3       9      93      95    1011    0.00
    08/21/2014 17:30      39    55.0      6.49        83.3      89.8      63.7       2       6     110      71    1011    0.00
    08/21/2014 17:40      40    55.5      6.49        82.5      89.8      63.7       4       8      96      75    1011    0.00
    08/21/2014 17:50      41    55.5      6.49        81.6      89.8      63.7       3       7     100      74    1011    0.00
    08/21/2014 18:00      43    55.5      6.49        80.9      89.8      63.7       3       8     120     132    1011    0.00
    08/21/2014 18:10      44    56.3      6.49        80.2      89.8      63.7       2       6      99      88    1011    0.00
    08/21/2014 18:20      46    56.2      6.49        79.6      89.8      63.7       3       8     103      99    1011    0.00
    08/21/2014 18:30      49    56.9      6.49        78.3      89.8      63.7       2       7      99      77    1011    0.00
    08/21/2014 18:40      53    57.4      6.49        76.6      89.8      63.7       2       6     146     134    1011    0.00
    08/21/2014 18:50      53    57.6      6.49        76.1      89.8      63.7       1       4      83      75    1012    0.00
    08/21/2014 19:00      53    57.7      6.49        76.0      89.8      63.7       1       3      80      86    1012    0.00
    08/21/2014 19:10      54    57.9      6.49        75.9      89.8      63.7       2       4      92      93    1012    0.00
    08/21/2014 19:20      54    58.1      6.49        75.7      89.8      63.7       2       4      69      78    1012    0.00
    08/21/2014 19:30      55    58.2      6.49        75.6      89.8      63.7       2       4      88      59    1012    0.00
    08/21/2014 19:40      55    58.2      6.49        75.4      89.8      63.7       1       4      84     104    1012    0.00
    08/21/2014 19:50      57    58.2      6.49        75.0      89.8      63.7       1       3      94      73    1012    0.00
    08/21/2014 20:00      55    57.9      6.49        74.6      89.8      63.7       2       7      90      78    1012    0.00
    08/21/2014 20:10      56    57.4      6.49        74.5      89.8      63.7       2       6      92     107    1013    0.00
    08/21/2014 20:20      57    57.4      6.49        73.9      89.8      63.7       1       4     121     126    1013    0.00
    08/21/2014 20:30      57    57.4      6.49        73.5      89.8      63.7       2       5      78      71    1013    0.00
    08/21/2014 20:40      58    57.5      6.49        73.2      89.8      63.7       2       5     100      74    1013    0.00
    08/21/2014 20:50      58    57.5      6.49        73.2      89.8      63.7       2       5      84      77    1013    0.00
    08/21/2014 21:00      58    57.5      6.49        73.1      89.8      63.7       2       5      64      98    1013    0.00
    08/21/2014 21:10      59    57.6      6.49        72.9      89.8      63.7       2       6      72      69    1013    0.00
    08/21/2014 21:20      61    58.0      6.49        72.6      89.8      63.7       3       6      58      58    1013    0.00
    08/21/2014 21:30      62    58.1      6.49        72.1      89.8      63.7       3       5      60      49    1013    0.00
    08/21/2014 21:40      63    58.2      6.49        71.7      89.8      63.7       4       6      46      60    1013    0.00
    08/21/2014 21:50      63    58.4      6.49        71.5      89.8      63.7       3       6      70      68    1013    0.00
    08/21/2014 22:00      63    58.2      6.49        71.3      89.8      63.7       3       7      53      52    1013    0.00
    08/21/2014 22:10      63    58.1      6.49        71.1      89.8      63.7       3       5      47      23    1013    0.00
    08/21/2014 22:20      63    58.0      6.49        71.3      89.8      63.7       2       4      60      67    1014    0.00
    08/21/2014 22:30      62    58.0      6.49        71.4      89.8      63.7       2       4      63      61    1014    0.00
    08/21/2014 22:40      62    57.8      6.49        71.4      89.8      63.7       2       4      58     104    1014    0.00
    08/21/2014 22:50      62    57.6      6.49        71.3      89.8      63.7       0       3      50      34    1013    0.00
    08/21/2014 23:00      62    57.6      6.49        71.2      89.8      63.7       0       1      39      29    1013    0.00
    08/21/2014 23:10      65    57.7      6.49        70.7      89.8      63.7       0       0     264     264    1013    0.00
    08/21/2014 23:20      66    57.7      6.49        69.8      89.8      63.7       0       1     201     203    1013    0.00
    08/21/2014 23:30      66    57.8      6.49        69.6      89.8      63.7       1       2     149     150    1013    0.00
    08/21/2014 23:40      66    57.9      6.49        69.6      89.8      63.7       1       3     182     187    1013    0.00
    08/21/2014 23:50      66    57.5      6.49        69.5      89.8      63.7       1       2     185     179    1013    0.00
    08/22/2014 00:00      66    57.5      6.49        69.4      89.8      63.7       2       3     174     173    1013    0.00
    08/22/2014 00:10      65    57.6      6.49        69.6      69.9      69.3       1       2     187     185    1013    0.00
    08/22/2014 00:20      67    57.8      6.49        69.5      69.9      69.2       1       2     180     172    1013    0.00
    08/22/2014 00:30      67    57.7      6.49        69.2      69.9      68.9       0       2     201     199    1013    0.00
    08/22/2014 00:40      69    58.0      6.49        68.9      69.9      68.8       0       0       0     239    1013    0.00
    08/22/2014 00:50      68    58.0      6.49        68.8      69.9      68.7       0       1     305     312    1013    0.00
    08/22/2014 01:00      68    58.1      6.49        68.8      69.9      68.6       0       1     302     293    1013    0.00
    08/22/2014 01:10      69    58.0      6.49        68.6      69.9      68.4       0       0       0     304    1013    0.00
    08/22/2014 01:20      69    58.2      6.49        68.6      69.9      68.4       0       0       0     314    1013    0.00
    08/22/2014 01:30      70    58.3      6.49        68.4      69.9      68.2       0       1      84      88    1013    0.00
    08/22/2014 01:40      70    58.4      6.49        68.5      69.9      68.2       0       1      87      88    1013    0.00
    08/22/2014 01:50      71    58.3      6.49        68.2      69.9      67.9       0       0       0     110    1013    0.00
    08/22/2014 02:00      70    58.5      6.49        68.2      69.9      67.8       1       2      87     104    1013    0.00
    08/22/2014 02:10      71    58.4      6.49        68.3      69.9      67.8       0       1      36      86    1013    0.00
    08/22/2014 02:20      71    58.5      6.49        68.1      69.9      67.8       0       0       0     288    1013    0.00
    08/22/2014 02:30      70    58.5      6.49        68.3      69.9      67.8       1       2      67      89    1013    0.00
    08/22/2014 02:40      70    58.3      6.49        68.5      69.9      67.8       1       3      72      80    1013    0.00
    08/22/2014 02:50      70    58.3      6.49        68.5      69.9      67.8       1       3      34      39    1013    0.00
    08/22/2014 03:00      70    58.3      6.49        68.4      69.9      67.8       2       3      47      30    1013    0.00
    08/22/2014 03:10      70    58.2      6.49        68.3      69.9      67.8       1       2      45       5    1013    0.00
    08/22/2014 03:20      70    58.1      6.49        68.0      69.9      67.8       1       2      39      54    1013    0.00
    08/22/2014 03:30      71    57.9      6.49        67.8      69.9      67.5       0       2      57      76    1013    0.00
    08/22/2014 03:40      72    57.7      6.49        67.4      69.9      67.1       0       1      82      92    1012    0.00
    08/22/2014 03:50      73    57.7      6.49        67.0      69.9      66.6       0       1     133     134    1012    0.00
    08/22/2014 04:00      74    57.9      6.49        66.5      69.9      66.1       0       0       0       0    1012    0.00
    08/22/2014 04:10      76    57.9      6.49        66.0      69.9      65.8       1       2     162     156    1012    0.00
    08/22/2014 04:20      76    58.2      6.49        65.8      69.9      65.7       0       2     170     163    1012    0.00
    08/22/2014 04:30      76    58.1      6.49        65.8      69.9      65.6       2       3     188     182    1012    0.00
    08/22/2014 04:40      76    58.1      6.49        65.7      69.9      65.6       1       2     190     192    1012    0.00
    08/22/2014 04:50      76    58.0      6.49        65.6      69.9      65.4       1       2     187     190    1012    0.00
    08/22/2014 05:00      76    57.8      6.49        65.5      69.9      65.3       0       0       0     226    1012    0.00
    08/22/2014 05:10      76    57.6      6.49        65.3      69.9      65.0       0       0       0     200    1012    0.00
    08/22/2014 05:20      77    57.8      6.49        65.2      69.9      65.0       1       2     151     153    1013    0.00
    08/22/2014 05:30      76    57.9      6.49        65.5      69.9      65.0       1       2     144     141    1013    0.00
    08/22/2014 05:40      76    57.9      6.49        65.6      69.9      65.0       0       1      77     105    1013    0.00